Time;durP1;ratioP1;P1;durP2;ratioP2;P2;SDS_P1;SDS_P2;PMS_P1;PMS_P2;Temp;Humidity;BMP_temperature;BMP_pressure;BME280_temperature;BME280_humidity;BME280_pressure;Samples;Min_cycle;Max_cycle;Signal;HPM_P1;HPM_P2
2022/09/23 00:01:34;;;;;;;1.50;1.20;;;;;;;-140.66;100.00;55571.53;5057168;28;20029;-73
2022/09/23 00:04:20;;;;;;;2.33;1.20;;;;;;;-140.66;100.00;55571.53;5042124;28;20400;-73
2022/09/23 00:07:06;;;;;;;1.27;0.90;;;;;;;-140.66;100.00;55571.53;5057343;28;20449;-73
2022/09/23 00:09:51;;;;;;;2.50;1.20;;;;;;;-140.66;100.00;55571.53;5041916;28;20032;-72
2022/09/23 00:12:37;;;;;;;4.75;1.40;;;;;;;-140.66;100.00;55571.53;5042403;28;20024;-73
2022/09/23 00:15:24;;;;;;;2.20;1.42;;;;;;;-140.66;100.00;55571.53;5056859;28;20024;-72
2022/09/23 00:18:10;;;;;;;2.40;1.50;;;;;;;-140.66;100.00;55571.53;5042400;28;20361;-72
2022/09/23 00:20:56;;;;;;;2.60;1.88;;;;;;;-140.66;100.00;55571.53;5057138;28;20098;-72
2022/09/23 00:23:42;;;;;;;8.25;2.00;;;;;;;-140.66;100.00;55571.53;5056491;28;20108;-73
2022/09/23 00:26:28;;;;;;;1.80;1.58;;;;;;;-140.66;100.00;55571.53;5056728;28;20083;-72
2022/09/23 00:29:14;;;;;;;3.55;1.80;;;;;;;-140.66;100.00;55571.53;5057081;28;20134;-73
2022/09/23 00:32:00;;;;;;;3.50;1.95;;;;;;;-140.66;100.00;55571.53;5042481;28;20449;-72
2022/09/23 00:34:46;;;;;;;2.42;1.80;;;;;;;-140.66;100.00;55571.53;5056617;28;20369;-72
2022/09/23 00:37:32;;;;;;;3.58;1.80;;;;;;;-140.66;100.00;55571.53;5056789;28;20028;-72
2022/09/23 00:40:18;;;;;;;2.42;1.83;;;;;;;-140.66;100.00;55571.53;5056277;28;20067;-73
2022/09/23 00:43:04;;;;;;;2.67;1.80;;;;;;;-140.66;100.00;55571.53;5056423;28;20043;-73
2022/09/23 00:45:50;;;;;;;5.63;2.10;;;;;;;-140.66;100.00;55571.53;5055715;28;20025;-72
2022/09/23 00:48:39;;;;;;;2.22;1.50;;;;;;;-140.66;100.00;55571.53;5056202;28;20366;-73
2022/09/23 00:51:33;;;;;;;2.10;1.63;;;;;;;-140.66;100.00;55571.53;5056787;28;20115;-74
2022/09/23 00:54:21;;;;;;;2.20;1.65;;;;;;;-140.66;100.00;55571.53;5056251;28;20029;-73
2022/09/23 00:57:10;;;;;;;2.22;1.50;;;;;;;-140.66;100.00;55571.53;5056184;28;20037;-73
2022/09/23 00:59:56;;;;;;;2.40;1.60;;;;;;;-140.66;100.00;55571.53;5055001;28;20039;-74
2022/09/23 01:02:42;;;;;;;3.13;1.75;;;;;;;-140.66;100.00;55571.53;5056517;28;20031;-72
2022/09/23 01:05:28;;;;;;;4.50;2.28;;;;;;;-140.66;100.00;55571.53;5055809;28;20397;-73
2022/09/23 01:08:15;;;;;;;5.18;2.70;;;;;;;-140.66;100.00;55571.53;5055892;28;20029;-73
2022/09/23 01:11:38;;;;;;;2.00;1.80;;;;;;;-140.66;100.00;55571.53;5055159;28;20094;-72
2022/09/23 01:14:51;;;;;;;3.25;2.30;;;;;;;-140.66;100.00;55571.53;5054822;28;20453;-73
2022/09/23 01:17:43;;;;;;;5.07;2.38;;;;;;;-140.66;100.00;55571.53;5055796;28;20120;-72
2022/09/23 01:20:34;;;;;;;2.38;1.98;;;;;;;-140.66;100.00;55571.53;5056057;28;20116;-72
2022/09/23 01:23:48;;;;;;;3.33;2.20;;;;;;;-140.66;100.00;55571.53;5055931;28;20028;-72
2022/09/23 01:26:59;;;;;;;3.15;2.20;;;;;;;-140.66;100.00;55571.53;5054832;28;20028;-72
2022/09/23 01:30:10;;;;;;;3.15;2.30;;;;;;;-140.66;100.00;55571.53;5054874;28;20037;-71
2022/09/23 01:33:17;;;;;;;4.07;2.30;;;;;;;-140.66;100.00;55571.53;5054294;28;20124;-72
2022/09/23 01:36:35;;;;;;;3.70;2.17;;;;;;;-140.66;100.00;55571.53;5040307;28;20040;-71
2022/09/23 01:39:44;;;;;;;2.85;2.13;;;;;;;-140.66;100.00;55571.53;5055341;28;20029;-72
2022/09/23 01:42:40;;;;;;;2.85;1.90;;;;;;;-140.66;100.00;55571.53;5055273;28;20350;-72
2022/09/23 01:45:25;;;;;;;2.70;1.80;;;;;;;-140.66;100.00;55571.53;5055052;28;20032;-72
2022/09/23 01:48:24;;;;;;;2.78;2.00;;;;;;;-140.66;100.00;55571.53;5053884;28;20021;-73
2022/09/23 01:51:33;;;;;;;2.65;2.17;;;;;;;-140.66;100.00;55571.53;5055352;28;20469;-73
2022/09/23 01:54:41;;;;;;;3.25;1.70;;;;;;;-140.66;100.00;55571.53;5039838;28;20032;-72
2022/09/23 01:57:33;;;;;;;2.50;1.60;;;;;;;-140.66;100.00;55571.53;5055268;28;20044;-72
2022/09/23 02:00:21;;;;;;;4.50;1.90;;;;;;;-140.66;100.00;55571.53;5041055;28;20358;-74
2022/09/23 02:03:14;;;;;;;2.38;1.80;;;;;;;-140.66;100.00;55571.53;5054872;28;20024;-72
2022/09/23 02:06:23;;;;;;;3.90;2.20;;;;;;;-140.66;100.00;55571.53;5054943;28;20044;-72
2022/09/23 02:09:20;;;;;;;2.35;1.60;;;;;;;-140.66;100.00;55571.53;5055191;28;20025;-72
2022/09/23 02:12:12;;;;;;;2.03;1.75;;;;;;;-140.66;100.00;55571.53;5055127;28;20441;-72
2022/09/23 02:15:03;;;;;;;2.28;1.88;;;;;;;-140.66;100.00;55571.53;5054630;28;20028;-72
2022/09/23 02:17:53;;;;;;;2.30;1.77;;;;;;;-140.66;100.00;55571.53;5040995;28;20056;-72
2022/09/23 02:20:39;;;;;;;2.95;1.98;;;;;;;-140.66;100.00;55571.53;5039422;28;20029;-72
2022/09/23 02:23:49;;;;;;;2.90;2.00;;;;;;;-140.66;100.00;55571.53;5054477;28;20037;-73
2022/09/23 02:26:46;;;;;;;4.60;2.10;;;;;;;-140.66;100.00;55571.53;5054627;28;20453;-72
2022/09/23 02:29:48;;;;;;;3.03;2.35;;;;;;;-140.66;100.00;55571.53;5054533;28;20025;-73
2022/09/23 02:32:52;;;;;;;4.15;2.22;;;;;;;-140.66;100.00;55571.53;5039243;28;20064;-73
2022/09/23 02:36:05;;;;;;;3.20;2.00;;;;;;;-140.66;100.00;55571.53;5054215;28;20032;-73
2022/09/23 02:39:02;;;;;;;2.33;2.13;;;;;;;-140.66;100.00;55571.53;5039055;28;20043;-72
2022/09/23 02:42:08;;;;;;;3.08;2.15;;;;;;;-140.66;100.00;55571.53;5039689;28;20407;-73
2022/09/23 02:44:54;;;;;;;4.72;2.42;;;;;;;-140.66;100.00;55571.53;5054753;28;20017;-72
2022/09/23 02:47:43;;;;;;;4.35;2.30;;;;;;;-140.66;100.00;55571.53;5039442;28;20032;-73
2022/09/23 02:50:31;;;;;;;3.83;2.60;;;;;;;-140.66;100.00;55571.53;5054772;28;20167;-73
2022/09/23 02:53:16;;;;;;;5.90;2.80;;;;;;;-140.66;100.00;55571.53;5040326;28;20029;-72
2022/09/23 02:56:15;;;;;;;5.35;2.80;;;;;;;-140.66;100.00;55571.53;5053394;28;20053;-73
2022/09/23 02:59:01;;;;;;;9.07;3.17;;;;;;;-140.66;100.00;55571.53;5039380;28;20366;-73
2022/09/23 03:01:51;;;;;;;5.10;2.83;;;;;;;-140.66;100.00;55571.53;5054683;28;20021;-72
2022/09/23 03:04:52;;;;;;;3.88;3.03;;;;;;;-140.66;100.00;55571.53;5054145;28;20025;-72
2022/09/23 03:08:26;;;;;;;5.20;2.85;;;;;;;-140.66;100.00;55571.53;5054253;28;20033;-74
2022/09/23 03:11:12;;;;;;;5.03;3.15;;;;;;;-140.66;100.00;55571.53;4993796;28;20026;-73
2022/09/23 03:14:07;;;;;;;5.97;2.95;;;;;;;-140.66;100.00;55571.53;4993356;28;20058;-74
2022/09/23 03:17:09;;;;;;;5.47;3.08;;;;;;;-140.66;100.00;55571.53;5050482;28;20029;-73
2022/09/23 03:20:01;;;;;;;4.45;3.10;;;;;;;-140.66;100.00;55571.53;5054842;28;20052;-73
2022/09/23 03:22:59;;;;;;;4.55;3.30;;;;;;;-140.66;100.00;55571.53;5038952;28;20029;-72
2022/09/23 03:25:48;;;;;;;4.93;3.05;;;;;;;-140.66;100.00;55571.53;5054115;28;20044;-73
2022/09/23 03:28:36;;;;;;;5.65;3.45;;;;;;;-140.66;100.00;55571.53;5054568;28;20036;-73
2022/09/23 03:31:21;;;;;;;6.00;3.50;;;;;;;-140.66;100.00;55571.53;5054375;28;20036;-73
2022/09/23 03:34:18;;;;;;;10.32;3.83;;;;;;;-140.66;100.00;55571.53;5054274;28;20456;-73
2022/09/23 03:37:16;;;;;;;10.98;3.75;;;;;;;-140.66;100.00;55571.53;5054064;28;20032;-74
2022/09/23 03:40:23;;;;;;;8.80;4.03;;;;;;;-140.66;100.00;55571.53;5039975;28;20112;-76
2022/09/23 03:43:13;;;;;;;11.15;4.60;;;;;;;-140.66;100.00;55571.53;5054168;28;20021;-73
2022/09/23 03:46:00;;;;;;;5.85;3.92;;;;;;;-140.66;100.00;55571.53;5054615;28;20098;-75
2022/09/23 03:48:45;;;;;;;6.55;3.83;;;;;;;-140.66;100.00;55571.53;5053942;28;20029;-74
2022/09/23 03:51:32;;;;;;;7.63;4.53;;;;;;;-140.66;100.00;55571.53;5054650;28;20056;-75
2022/09/23 03:54:19;;;;;;;6.88;4.05;;;;;;;-140.66;100.00;55571.53;5057292;28;20036;-73
2022/09/23 03:57:06;;;;;;;6.78;4.55;;;;;;;-140.66;100.00;55571.53;5057705;28;20359;-74
2022/09/23 03:59:52;;;;;;;10.48;5.85;;;;;;;-140.66;100.00;55571.53;5058054;28;20025;-73
2022/09/23 04:02:39;;;;;;;7.32;4.30;;;;;;;-140.66;100.00;55571.53;5057285;28;20075;-73
2022/09/23 04:05:24;;;;;;;7.35;4.70;;;;;;;-140.66;100.00;55571.53;5042654;28;20056;-73
2022/09/23 04:08:10;;;;;;;11.45;4.72;;;;;;;-140.66;100.00;55571.53;5057664;28;20195;-74
2022/09/23 04:11:03;;;;;;;7.03;5.10;;;;;;;-140.66;100.00;55571.53;5056802;28;20021;-73
2022/09/23 04:13:49;;;;;;;8.23;5.78;;;;;;;-140.66;100.00;55571.53;5056251;28;20036;-73
2022/09/23 04:16:34;;;;;;;7.50;6.00;;;;;;;-140.66;100.00;55571.53;5042516;28;20033;-74
2022/09/23 04:19:20;;;;;;;9.63;5.30;;;;;;;-140.66;100.00;55571.53;5057474;28;20028;-73
2022/09/23 04:22:08;;;;;;;11.80;4.80;;;;;;;-140.66;100.00;55571.53;5056720;28;20464;-74
2022/09/23 04:24:54;;;;;;;6.28;4.40;;;;;;;-140.66;100.00;55571.53;5041732;28;20033;-71
2022/09/23 04:27:39;;;;;;;10.32;4.50;;;;;;;-140.66;100.00;55571.53;5057034;28;20050;-72
2022/09/23 04:30:25;;;;;;;7.30;4.78;;;;;;;-140.66;100.00;55571.53;5056817;28;20028;-73
2022/09/23 04:33:12;;;;;;;7.22;4.50;;;;;;;-140.66;100.00;55571.53;5056456;28;20025;-73
2022/09/23 04:35:58;;;;;;;9.45;4.60;;;;;;;-140.66;100.00;55571.53;5056704;28;20035;-74
2022/09/23 04:38:45;;;;;;;8.60;5.00;;;;;;;-140.66;100.00;55571.53;5056726;28;20506;-74
2022/09/23 04:41:31;;;;;;;12.95;5.13;;;;;;;-140.66;100.00;55571.53;5041243;28;20112;-74
2022/09/23 04:44:17;;;;;;;6.53;4.50;;;;;;;-140.66;100.00;55571.53;5056073;28;20033;-75
2022/09/23 04:47:03;;;;;;;8.00;5.25;;;;;;;-140.66;100.00;55571.53;5056728;28;20029;-72
2022/09/23 04:49:49;;;;;;;6.30;4.85;;;;;;;-140.66;100.00;55571.53;5060413;28;20029;-73
2022/09/23 04:52:35;;;;;;;7.60;4.72;;;;;;;-140.66;100.00;55571.53;5052640;28;20453;-72
2022/09/23 04:55:21;;;;;;;7.35;4.80;;;;;;;-140.66;100.00;55571.53;5057659;28;20088;-73
2022/09/23 04:58:08;;;;;;;8.25;4.70;;;;;;;-140.66;100.00;55571.53;5063774;28;20503;-73
2022/09/23 05:00:56;;;;;;;8.75;4.80;;;;;;;-140.66;100.00;55571.53;5044370;28;20056;-74
2022/09/23 05:03:43;;;;;;;11.43;5.18;;;;;;;-140.66;100.00;55571.53;5061440;28;20033;-73
2022/09/23 05:06:30;;;;;;;8.00;5.07;;;;;;;-140.66;100.00;55571.53;5048083;28;20124;-73
2022/09/23 05:09:16;;;;;;;10.70;5.07;;;;;;;-140.66;100.00;55571.53;5045389;28;20032;-75
2022/09/23 05:12:02;;;;;;;8.38;5.28;;;;;;;-140.66;100.00;55571.53;5055996;28;20044;-74
2022/09/23 05:14:47;;;;;;;10.10;5.15;;;;;;;-140.66;100.00;55571.53;5055991;28;20108;-74
2022/09/23 05:17:33;;;;;;;7.28;4.97;;;;;;;-140.66;100.00;55571.53;5055748;28;20025;-75
2022/09/23 05:20:19;;;;;;;8.98;5.13;;;;;;;-140.66;100.00;55571.53;5056015;28;20025;-74
2022/09/23 05:23:05;;;;;;;8.90;4.70;;;;;;;-140.66;100.00;55571.53;5056069;28;20029;-75
2022/09/23 05:25:59;;;;;;;6.63;4.30;;;;;;;-140.66;100.00;55571.53;5055319;28;20082;-74
2022/09/23 05:28:45;;;;;;;8.55;4.40;;;;;;;-140.66;100.00;55571.53;5040397;28;20464;-74
2022/09/23 05:31:31;;;;;;;9.38;4.75;;;;;;;-140.66;100.00;55571.53;5054301;28;20048;-74
2022/09/23 05:34:17;;;;;;;9.43;6.57;;;;;;;-140.66;100.00;55571.53;5040628;28;20096;-74
2022/09/23 05:37:04;;;;;;;9.18;6.07;;;;;;;-140.66;100.00;55571.53;5055158;28;20361;-75
2022/09/23 05:39:49;;;;;;;7.38;4.72;;;;;;;-140.66;100.00;55571.53;5055618;28;20036;-75
2022/09/23 05:42:35;;;;;;;8.15;5.35;;;;;;;-140.66;100.00;55571.53;5055345;28;20097;-74
2022/09/23 05:45:21;;;;;;;7.57;5.10;;;;;;;-140.66;100.00;55571.53;5055133;28;20060;-74
2022/09/23 05:48:07;;;;;;;10.52;4.72;;;;;;;-140.66;100.00;55571.53;5055346;28;20052;-75
2022/09/23 05:50:52;;;;;;;10.20;5.35;;;;;;;-140.66;100.00;55571.53;5054990;28;20028;-74
2022/09/23 05:53:39;;;;;;;10.88;5.53;;;;;;;-140.66;100.00;55571.53;5039760;28;20025;-74
2022/09/23 05:56:27;;;;;;;8.82;5.15;;;;;;;-140.66;100.00;55571.53;5033647;28;20390;-73
2022/09/23 05:59:13;;;;;;;11.70;5.97;;;;;;;-140.66;100.00;55571.53;5034913;28;20061;-74
2022/09/23 06:01:59;;;;;;;11.88;5.43;;;;;;;-140.66;100.00;55571.53;5033802;28;20040;-74
2022/09/23 06:04:45;;;;;;;12.93;5.40;;;;;;;-140.66;100.00;55571.53;5033903;28;20033;-73
2022/09/23 06:07:31;;;;;;;6.97;4.97;;;;;;;-140.66;100.00;55571.53;5033370;28;20032;-74
2022/09/23 06:10:17;;;;;;;9.88;6.03;;;;;;;-140.66;100.00;55571.53;5035046;28;20033;-75
2022/09/23 06:13:03;;;;;;;8.20;5.43;;;;;;;-140.66;100.00;55571.53;5033184;28;20029;-75
2022/09/23 06:15:49;;;;;;;9.68;4.97;;;;;;;-140.66;100.00;55571.53;5034208;28;20417;-73
2022/09/23 06:18:37;;;;;;;12.02;5.13;;;;;;;-140.66;100.00;55571.53;5034438;28;20350;-73
2022/09/23 06:21:23;;;;;;;7.25;4.38;;;;;;;-140.66;100.00;55571.53;5034551;28;20095;-74
2022/09/23 06:24:09;;;;;;;7.10;4.70;;;;;;;-140.66;100.00;55571.53;5033444;28;20021;-74
2022/09/23 06:26:55;;;;;;;6.88;3.85;;;;;;;-140.66;100.00;55571.53;5033727;28;20021;-74
2022/09/23 06:29:40;;;;;;;6.05;4.43;;;;;;;-140.66;100.00;55571.53;5033310;28;20116;-73
2022/09/23 06:32:26;;;;;;;5.72;4.00;;;;;;;-140.66;100.00;55571.53;5034954;28;20457;-73
2022/09/23 06:35:12;;;;;;;5.05;3.60;;;;;;;-140.66;100.00;55571.53;5033652;28;20116;-73
2022/09/23 06:38:01;;;;;;;5.35;3.97;;;;;;;-140.66;100.00;55571.53;5022918;28;20581;-72
2022/09/23 06:40:53;;;;;;;9.98;4.57;;;;;;;-140.66;100.00;55571.53;5025037;28;20037;-72
2022/09/23 06:43:39;;;;;;;6.10;4.40;;;;;;;-140.66;100.00;55571.53;5024345;28;20038;-73
2022/09/23 06:46:24;;;;;;;6.45;4.40;;;;;;;-140.66;100.00;55571.53;5023143;28;20099;-72
2022/09/23 06:49:11;;;;;;;8.15;4.47;;;;;;;-140.66;100.00;55571.53;5023751;28;20727;-73
2022/09/23 06:51:56;;;;;;;10.85;5.10;;;;;;;-140.66;100.00;55571.53;5023838;28;20131;-73
2022/09/23 06:54:42;;;;;;;8.15;4.75;;;;;;;-140.66;100.00;55571.53;5024629;28;20029;-73
2022/09/23 06:57:29;;;;;;;8.00;4.70;;;;;;;-140.66;100.00;55571.53;5044634;28;20115;-73
2022/09/23 07:00:15;;;;;;;11.57;5.60;;;;;;;-140.66;100.00;55571.53;5028827;28;20101;-73
2022/09/23 07:03:06;;;;;;;17.52;6.00;;;;;;;-140.66;100.00;55571.53;5043403;28;20036;-73
2022/09/23 07:05:55;;;;;;;22.27;11.90;;;;;;;-140.66;100.00;55571.53;5042689;28;20039;-72
2022/09/23 07:08:43;;;;;;;11.45;6.50;;;;;;;-140.66;100.00;55571.53;5030799;28;20055;-73
2022/09/23 07:11:29;;;;;;;6.60;4.82;;;;;;;-140.66;100.00;55571.53;5043575;28;20044;-72
2022/09/23 07:14:15;;;;;;;8.25;5.00;;;;;;;-140.66;100.00;55571.53;5042488;28;20381;-72
2022/09/23 07:17:02;;;;;;;8.30;5.32;;;;;;;-140.66;100.00;55571.53;5043177;28;20056;-73
2022/09/23 07:19:48;;;;;;;8.80;4.90;;;;;;;-140.66;100.00;55571.53;5030321;28;20120;-73
2022/09/23 07:22:34;;;;;;;9.05;5.38;;;;;;;-140.66;100.00;55571.53;5029633;28;20626;-73
2022/09/23 07:25:21;;;;;;;12.60;6.50;;;;;;;-140.66;100.00;55571.53;5026569;28;20446;-72
2022/09/23 07:28:08;;;;;;;8.35;5.80;;;;;;;-140.66;100.00;55571.53;5047393;28;20190;-72
2022/09/23 07:30:54;;;;;;;11.38;6.60;;;;;;;-140.66;100.00;55571.53;5047894;28;20412;-73
2022/09/23 07:33:44;;;;;;;14.55;6.90;;;;;;;-140.66;100.00;55571.53;5046633;28;20109;-73
2022/09/23 07:36:31;;;;;;;13.77;7.10;;;;;;;-140.66;100.00;55571.53;5046679;28;20037;-72
2022/09/23 07:39:17;;;;;;;12.25;7.88;;;;;;;-140.66;100.00;55571.53;5048001;28;20029;-71
2022/09/23 07:42:04;;;;;;;11.55;7.05;;;;;;;-140.66;100.00;55571.53;5048287;28;20428;-73
2022/09/23 07:44:49;;;;;;;13.63;7.20;;;;;;;-140.66;100.00;55571.53;5046656;28;20029;-73
2022/09/23 07:47:38;;;;;;;16.20;8.05;;;;;;;-140.66;100.00;55571.53;5049536;28;20461;-73
2022/09/23 07:50:23;;;;;;;13.55;7.63;;;;;;;-140.66;100.00;55571.53;5046438;28;20026;-73
2022/09/23 07:53:09;;;;;;;17.95;8.43;;;;;;;-140.66;100.00;55571.53;5055842;28;20037;-76
2022/09/23 07:55:56;;;;;;;12.52;7.93;;;;;;;-140.66;100.00;55571.53;5054967;28;20072;-75
2022/09/23 07:58:41;;;;;;;11.43;7.28;;;;;;;-140.66;100.00;55571.53;5058025;28;20028;-77
2022/09/23 08:01:30;;;;;;;12.60;7.75;;;;;;;-140.66;100.00;55571.53;5045232;28;20039;-75
2022/09/23 08:04:23;;;;;;;14.95;7.47;;;;;;;-140.66;100.00;55571.53;5046408;28;20408;-75
2022/09/23 08:07:11;;;;;;;13.15;8.38;;;;;;;-140.66;100.00;55571.53;5048035;28;20522;-74
2022/09/23 08:09:57;;;;;;;16.83;8.60;;;;;;;-140.66;100.00;55571.53;5046183;28;20045;-77
2022/09/23 08:12:43;;;;;;;20.27;9.93;;;;;;;-140.66;100.00;55571.53;5047179;28;20036;-75
2022/09/23 08:15:30;;;;;;;16.17;8.95;;;;;;;-140.66;100.00;55571.53;5044971;28;20075;-76
2022/09/23 08:18:15;;;;;;;14.90;7.75;;;;;;;-140.66;100.00;55571.53;5031429;28;20318;-77
2022/09/23 08:21:02;;;;;;;10.43;7.30;;;;;;;-140.66;100.00;55571.53;5031269;28;20067;-77
2022/09/23 08:23:48;;;;;;;12.90;7.50;;;;;;;-140.66;100.00;55571.53;5045116;28;20021;-76
2022/09/23 08:26:34;;;;;;;13.02;8.30;;;;;;;-140.66;100.00;55571.53;5046543;28;20040;-76
2022/09/23 08:29:21;;;;;;;11.68;7.63;;;;;;;-140.66;100.00;55571.53;5043471;28;20021;-76
2022/09/23 08:32:07;;;;;;;13.60;6.95;;;;;;;-140.66;100.00;55571.53;5054423;28;20040;-74
2022/09/23 08:34:53;;;;;;;13.23;6.97;;;;;;;-140.66;100.00;55571.53;5050360;28;20024;-73
2022/09/23 08:37:38;;;;;;;12.35;7.20;;;;;;;-140.66;100.00;55571.53;5047881;28;20178;-75
2022/09/23 08:40:24;;;;;;;14.02;6.90;;;;;;;-140.66;100.00;55571.53;5048172;28;20021;-74
2022/09/23 08:43:38;;;;;;;13.20;7.65;;;;;;;-140.66;100.00;55571.53;5046092;28;20435;-74
2022/09/23 08:46:35;;;;;;;11.40;7.93;;;;;;;-140.66;100.00;55571.53;5053896;28;20461;-75
2022/09/23 08:49:32;;;;;;;11.27;7.75;;;;;;;-140.66;100.00;55571.53;5049105;28;20047;-74
2022/09/23 08:52:27;;;;;;;14.27;7.43;;;;;;;-140.66;100.00;55571.53;5062908;28;20430;-73
2022/09/23 08:55:14;;;;;;;11.25;7.78;;;;;;;-140.66;100.00;55571.53;5044912;28;20130;-74
2022/09/23 08:58:35;;;;;;;10.40;7.10;;;;;;;-140.66;100.00;55571.53;5044098;28;20041;-72
2022/09/23 09:01:40;;;;;;;8.95;6.75;;;;;;;-140.66;100.00;55571.53;5013030;28;20083;-74
2022/09/23 09:04:34;;;;;;;10.48;7.40;;;;;;;-140.66;100.00;55571.53;5044260;28;20028;-74
2022/09/23 09:07:28;;;;;;;11.40;7.35;;;;;;;-140.66;100.00;55571.53;5045475;28;20490;-74
2022/09/23 09:10:21;;;;;;;12.30;7.72;;;;;;;-140.66;100.00;55571.53;5031850;28;20029;-74
2022/09/23 09:13:28;;;;;;;14.57;7.82;;;;;;;-140.66;100.00;55571.53;5032416;28;20369;-73
2022/09/23 09:16:19;;;;;;;11.20;8.25;;;;;;;-140.66;100.00;55571.53;5046362;28;20443;-74
2022/09/23 09:19:21;;;;;;;14.07;8.10;;;;;;;-140.66;100.00;55571.53;5045027;28;20029;-74
2022/09/23 09:22:18;;;;;;;11.65;7.50;;;;;;;-140.66;100.00;55571.53;5031433;28;20040;-73
2022/09/23 09:25:38;;;;;;;11.98;8.85;;;;;;;-140.66;100.00;55571.53;5043733;28;20048;-75
2022/09/23 09:28:39;;;;;;;14.95;8.07;;;;;;;-140.66;100.00;55571.53;5044131;28;20071;-74
2022/09/23 09:31:32;;;;;;;10.85;7.22;;;;;;;-140.66;100.00;55571.53;5044150;28;20361;-74
2022/09/23 09:34:37;;;;;;;12.13;6.70;;;;;;;-140.66;100.00;55571.53;5043625;28;20442;-73
2022/09/23 09:37:22;;;;;;;24.50;16.70;;;;;;;-140.66;100.00;55571.53;5044632;28;20378;-75
2022/09/23 09:40:13;;;;;;;20.55;13.35;;;;;;;-140.66;100.00;55571.53;5047696;28;20031;-74
2022/09/23 09:42:59;;;;;;;12.07;8.27;;;;;;;-140.66;100.00;55571.53;5045193;28;20162;-75
2022/09/23 09:46:39;;;;;;;18.02;12.85;;;;;;;-140.66;100.00;55571.53;5044021;28;20128;-74
2022/09/23 09:49:39;;;;;;;10.57;7.40;;;;;;;-140.66;100.00;55571.53;4986797;28;20451;-74
2022/09/23 09:52:28;;;;;;;9.93;7.68;;;;;;;-140.66;100.00;55571.53;5043125;28;20436;-74
2022/09/23 09:55:24;;;;;;;9.15;6.82;;;;;;;-140.66;100.00;55571.53;5044959;28;20136;-74
2022/09/23 09:58:15;;;;;;;9.63;7.68;;;;;;;-140.66;100.00;55571.53;5031083;28;20043;-75
2022/09/23 10:01:01;;;;;;;10.32;7.60;;;;;;;-140.66;100.00;55571.53;5043592;28;20033;-75
2022/09/23 10:03:48;;;;;;;10.38;7.05;;;;;;;-140.66;100.00;55571.53;5043842;28;20513;-75
2022/09/23 10:06:35;;;;;;;14.35;9.98;;;;;;;-140.66;100.00;55571.53;5043918;28;20033;-73
2022/09/23 10:09:27;;;;;;;8.25;6.53;;;;;;;-140.66;100.00;55571.53;5031524;28;20175;-74
2022/09/23 10:12:17;;;;;;;12.70;7.55;;;;;;;-140.66;100.00;55571.53;5045219;28;20051;-75
2022/09/23 10:15:04;;;;;;;10.40;6.53;;;;;;;-140.66;100.00;55571.53;5041777;28;20044;-76
2022/09/23 10:17:50;;;;;;;10.60;7.18;;;;;;;-140.66;100.00;55571.53;5016204;28;20056;-74
2022/09/23 10:20:37;;;;;;;9.52;6.95;;;;;;;-140.66;100.00;55571.53;5046191;28;20036;-74
2022/09/23 10:23:27;;;;;;;8.93;6.25;;;;;;;-140.66;100.00;55571.53;5044257;28;20446;-73
2022/09/23 10:26:16;;;;;;;10.40;6.88;;;;;;;-140.66;100.00;55571.53;5045040;28;20091;-75
2022/09/23 10:29:21;;;;;;;8.10;6.20;;;;;;;-140.66;100.00;55571.53;5043253;28;20033;-75
2022/09/23 10:32:31;;;;;;;10.95;6.50;;;;;;;-140.66;100.00;55571.53;5043662;28;20029;-75
2022/09/23 10:35:23;;;;;;;7.68;6.13;;;;;;;-140.66;100.00;55571.53;5042670;28;20041;-74
2022/09/23 10:38:10;;;;;;;5.68;4.30;;;;;;;-140.66;100.00;55571.53;5044473;28;20044;-74
2022/09/23 10:47:54;;;;;;;4.30;3.50;;;;;;;-140.66;100.00;55571.53;5044122;28;20117;-75
2022/09/23 10:50:51;;;;;;;5.25;2.95;;;;;;;-140.66;100.00;55571.53;5044057;28;20060;-70
2022/09/23 10:54:00;;;;;;;2.83;2.03;;;;;;;-140.66;100.00;55571.53;5043385;28;20033;-78
2022/09/23 10:56:52;;;;;;;3.05;2.45;;;;;;;-140.66;100.00;55571.53;5028803;28;20055;-76
2022/09/23 10:59:49;;;;;;;3.22;2.80;;;;;;;-140.66;100.00;55571.53;5044370;28;20116;-79
2022/09/23 11:02:44;;;;;;;6.40;4.10;;;;;;;-140.66;100.00;55571.53;5048018;28;20036;-72
2022/09/23 11:05:33;;;;;;;4.68;3.50;;;;;;;-140.66;100.00;55571.53;5046343;28;20512;-74
2022/09/23 11:08:42;;;;;;;3.30;2.53;;;;;;;-140.66;100.00;55571.53;5034211;28;20044;-76
2022/09/23 11:12:03;;;;;;;4.60;2.80;;;;;;;-140.66;100.00;55571.53;5023109;28;20369;-74
2022/09/23 11:14:50;;;;;;;5.20;2.17;;;;;;;-140.66;100.00;55571.53;5032731;28;20036;-74
2022/09/23 11:18:01;;;;;;;5.53;2.60;;;;;;;-140.66;100.00;55571.53;5047311;28;20036;-74
2022/09/23 11:20:56;;;;;;;3.45;2.45;;;;;;;-140.66;100.00;55571.53;5048143;28;20175;-73
2022/09/23 11:23:54;;;;;;;5.82;3.03;;;;;;;-140.66;100.00;55571.53;5046238;28;20094;-74
2022/09/23 11:26:45;;;;;;;4.00;2.67;;;;;;;-140.66;100.00;55571.53;5034205;28;20122;-74
2022/09/23 11:29:52;;;;;;;3.90;2.75;;;;;;;-140.66;100.00;55571.53;5048229;28;20351;-73
2022/09/23 11:33:12;;;;;;;3.60;2.60;;;;;;;-140.66;100.00;55571.53;5047075;28;20040;-73
2022/09/23 11:36:05;;;;;;;3.60;2.30;;;;;;;-140.66;100.00;55571.53;5045236;28;20052;-72
2022/09/23 11:38:53;;;;;;;3.53;2.70;;;;;;;-140.66;100.00;55571.53;5048327;28;20021;-72
2022/09/23 11:41:41;;;;;;;4.35;2.80;;;;;;;-140.66;100.00;55571.53;5032107;28;20045;-72
2022/09/23 11:44:51;;;;;;;4.57;2.35;;;;;;;-140.66;100.00;55571.53;5045309;28;20025;-73
2022/09/23 11:47:49;;;;;;;2.60;2.40;;;;;;;-140.66;100.00;55571.53;5046935;28;20041;-74
2022/09/23 11:50:52;;;;;;;6.05;4.30;;;;;;;-140.66;100.00;55571.53;5047153;28;20079;-74
2022/09/23 11:53:58;;;;;;;3.10;2.55;;;;;;;-140.66;100.00;55571.53;5046218;28;20425;-72
2022/09/23 11:56:48;;;;;;;4.97;2.30;;;;;;;-140.66;100.00;55571.53;5045688;28;20045;-74
2022/09/23 11:59:50;;;;;;;2.53;2.25;;;;;;;-140.66;100.00;55571.53;5046135;28;20116;-73
2022/09/23 12:02:49;;;;;;;3.78;2.42;;;;;;;-140.66;100.00;55571.53;5032142;28;20436;-74
2022/09/23 12:05:43;;;;;;;3.85;2.10;;;;;;;-140.66;100.00;55571.53;5044724;28;20041;-73
2022/09/23 12:08:37;;;;;;;3.75;2.78;;;;;;;-140.66;100.00;55571.53;5045811;28;20368;-72
2022/09/23 12:11:36;;;;;;;3.58;2.72;;;;;;;-140.66;100.00;55571.53;5048166;28;20036;-74
2022/09/23 12:14:37;;;;;;;2.92;2.63;;;;;;;-140.66;100.00;55571.53;5037608;28;20116;-73
2022/09/23 12:17:34;;;;;;;3.95;2.30;;;;;;;-140.66;100.00;55571.53;5046785;28;20056;-74
2022/09/23 12:20:35;;;;;;;2.60;2.40;;;;;;;-140.66;100.00;55571.53;5048209;28;20112;-72
2022/09/23 12:23:32;;;;;;;2.33;2.00;;;;;;;-140.66;100.00;55571.53;5046966;28;20548;-73
2022/09/23 12:26:22;;;;;;;3.97;2.30;;;;;;;-140.66;100.00;55571.53;5044947;28;20548;-72
2022/09/23 12:29:13;;;;;;;2.38;2.10;;;;;;;-140.66;100.00;55571.53;5046606;28;20033;-73
2022/09/23 12:32:00;;;;;;;4.10;2.50;;;;;;;-140.66;100.00;55571.53;5044898;28;20033;-74
2022/09/23 12:34:48;;;;;;;5.13;2.58;;;;;;;-140.66;100.00;55571.53;5045616;28;20048;-73
2022/09/23 12:37:37;;;;;;;3.25;2.88;;;;;;;-140.66;100.00;55571.53;5052929;28;20036;-75
2022/09/23 12:40:32;;;;;;;4.07;2.50;;;;;;;-140.66;100.00;55571.53;5053257;28;20083;-76
2022/09/23 12:43:33;;;;;;;7.80;3.90;;;;;;;-140.66;100.00;55571.53;5046690;28;20461;-75
2022/09/23 12:46:24;;;;;;;4.88;3.53;;;;;;;-140.66;100.00;55571.53;5046761;28;20036;-76
2022/09/23 12:49:28;;;;;;;3.20;2.83;;;;;;;-140.66;100.00;55571.53;5031641;28;20037;-74
2022/09/23 12:52:17;;;;;;;2.40;2.20;;;;;;;-140.66;100.00;55571.53;5031336;28;20098;-76
2022/09/23 12:55:25;;;;;;;2.83;2.60;;;;;;;-140.66;100.00;55571.53;5029031;28;20548;-75
2022/09/23 12:58:41;;;;;;;3.15;2.50;;;;;;;-140.66;100.00;55571.53;5047249;28;20457;-72
2022/09/23 13:01:35;;;;;;;3.03;2.42;;;;;;;-140.66;100.00;55571.53;5044958;28;20472;-72
2022/09/23 13:07:48;;;;;;;4.22;2.15;;;;;;;-140.66;100.00;55571.53;5045716;28;20025;-73
2022/09/23 13:10:43;;;;;;;4.90;2.40;;;;;;;-140.66;100.00;55571.53;5045890;28;20036;-72